Time;durP1;ratioP1;P1;durP2;ratioP2;P2;SDS_P1;SDS_P2;PMS_P1;PMS_P2;Temp;Humidity;BMP_temperature;BMP_pressure;BME280_temperature;BME280_humidity;BME280_pressure;Samples;Min_cycle;Max_cycle;Signal;HPM_P1;HPM_P2
2023/07/12 00:00:47;;;;;;;20.20;14.25;;;;;;;;;;5056688;28;20083;-65
2023/07/12 00:03:14;;;;;;;23.75;10.60;;;;;;;;;;5056628;28;20092;-66
2023/07/12 00:05:42;;;;;;;38.58;22.10;;;;;;;;;;5056413;28;20017;-66
2023/07/12 00:08:26;;;;;;;27.48;14.57;;;;;;;;;;5056435;28;20033;-65
2023/07/12 00:10:54;;;;;;;14.88;10.50;;;;;;;;;;5056586;28;20025;-65
2023/07/12 00:13:21;;;;;;;42.33;23.63;;;;;;;;;;5056198;28;20029;-65
2023/07/12 00:15:49;;;;;;;38.33;22.95;;;;;;;;;;5056112;28;20071;-65
2023/07/12 00:18:21;;;;;;;41.65;27.00;;;;;;;;;;5056183;28;20017;-65
2023/07/12 00:20:48;;;;;;;41.25;21.35;;;;;;;;;;5056268;28;20025;-64
2023/07/12 00:23:16;;;;;;;21.45;11.70;;;;;;;;;;5056039;28;20025;-66
2023/07/12 00:25:43;;;;;;;36.60;22.17;;;;;;;;;;5056086;28;20017;-64
2023/07/12 00:28:28;;;;;;;19.60;11.25;;;;;;;;;;5056237;28;20385;-65
2023/07/12 00:30:57;;;;;;;13.27;7.28;;;;;;;;;;5055898;28;20025;-66
2023/07/12 00:33:24;;;;;;;21.77;8.55;;;;;;;;;;5055980;28;20036;-64
2023/07/12 00:35:51;;;;;;;10.65;5.43;;;;;;;;;;5056065;28;20070;-64
2023/07/12 00:38:19;;;;;;;17.58;5.15;;;;;;;;;;5053911;28;20021;-68
2023/07/12 00:41:04;;;;;;;8.52;5.55;;;;;;;;;;5049933;28;20600;-64
2023/07/12 00:43:38;;;;;;;13.30;6.82;;;;;;;;;;5034713;28;20057;-64
2023/07/12 00:46:17;;;;;;;13.57;7.50;;;;;;;;;;5035672;28;20032;-65
2023/07/12 00:48:46;;;;;;;11.85;8.30;;;;;;;;;;5037947;28;20097;-64
2023/07/12 00:51:28;;;;;;;15.38;8.02;;;;;;;;;;5051119;28;20433;-64
2023/07/12 00:53:58;;;;;;;14.90;7.88;;;;;;;;;;5035807;28;20037;-65
2023/07/12 00:56:25;;;;;;;15.07;7.05;;;;;;;;;;5035416;28;20036;-65
2023/07/12 00:59:15;;;;;;;11.15;7.03;;;;;;;;;;5035656;28;20030;-65
2023/07/12 01:01:42;;;;;;;13.48;7.90;;;;;;;;;;5031954;28;20443;-65
2023/07/12 01:04:10;;;;;;;17.42;8.38;;;;;;;;;;5035505;28;20037;-64
2023/07/12 01:06:36;;;;;;;15.02;8.20;;;;;;;;;;5045670;28;20036;-65
2023/07/12 01:09:09;;;;;;;12.00;7.85;;;;;;;;;;5054971;28;20027;-66
2023/07/12 01:11:37;;;;;;;13.93;8.95;;;;;;;;;;5054900;28;20067;-65
2023/07/12 01:14:09;;;;;;;13.57;7.93;;;;;;;;;;5055255;28;20017;-64
2023/07/12 01:16:36;;;;;;;10.77;7.82;;;;;;;;;;5055821;28;20116;-64
2023/07/12 01:19:02;;;;;;;13.20;6.68;;;;;;;;;;5055283;28;20025;-64
2023/07/12 01:21:33;;;;;;;13.70;7.25;;;;;;;;;;5055029;28;20024;-63
2023/07/12 01:24:00;;;;;;;10.85;7.07;;;;;;;;;;5055561;28;20437;-65
2023/07/12 01:26:27;;;;;;;14.10;6.55;;;;;;;;;;5055000;28;20478;-65
2023/07/12 01:28:55;;;;;;;18.52;13.38;;;;;;;;;;5054764;28;20029;-66
2023/07/12 01:31:23;;;;;;;15.05;6.53;;;;;;;;;;5054934;28;20445;-64
2023/07/12 01:33:49;;;;;;;12.77;6.78;;;;;;;;;;5037513;28;20112;-65
2023/07/12 01:36:16;;;;;;;13.40;7.25;;;;;;;;;;5034665;28;20029;-65
2023/07/12 01:38:43;;;;;;;15.80;7.53;;;;;;;;;;5034824;28;20025;-66
2023/07/12 01:41:10;;;;;;;18.08;8.05;;;;;;;;;;5038918;28;20021;-66
2023/07/12 01:43:37;;;;;;;11.30;7.75;;;;;;;;;;5054344;28;20049;-66
2023/07/12 01:46:04;;;;;;;13.73;6.70;;;;;;;;;;5054639;28;20029;-66
2023/07/12 01:48:30;;;;;;;14.40;8.00;;;;;;;;;;5054354;28;20203;-65
2023/07/12 01:50:57;;;;;;;15.43;9.40;;;;;;;;;;5053891;28;20036;-65
2023/07/12 01:53:24;;;;;;;14.30;8.20;;;;;;;;;;5050180;28;20037;-66
2023/07/12 01:55:51;;;;;;;13.48;8.50;;;;;;;;;;5054063;28;20028;-66
2023/07/12 01:58:17;;;;;;;15.32;9.32;;;;;;;;;;5034489;28;20037;-65
2023/07/12 02:00:44;;;;;;;18.13;9.90;;;;;;;;;;5034536;28;20060;-66
2023/07/12 02:03:11;;;;;;;16.50;8.77;;;;;;;;;;5034494;28;20025;-66
2023/07/12 02:05:37;;;;;;;35.22;25.52;;;;;;;;;;5034921;28;20402;-66
2023/07/12 02:08:04;;;;;;;21.42;12.15;;;;;;;;;;5034073;28;20520;-66
2023/07/12 02:10:30;;;;;;;17.33;10.50;;;;;;;;;;5034268;28;20057;-66
2023/07/12 02:12:57;;;;;;;22.48;12.02;;;;;;;;;;5033952;28;20021;-66
2023/07/12 02:15:24;;;;;;;24.02;13.77;;;;;;;;;;5033954;28;20033;-66
2023/07/12 02:17:50;;;;;;;24.08;14.50;;;;;;;;;;5034073;28;20060;-66
2023/07/12 02:20:17;;;;;;;20.17;12.38;;;;;;;;;;5034037;28;20033;-66
2023/07/12 02:22:45;;;;;;;23.63;16.55;;;;;;;;;;5033823;28;20025;-66
2023/07/12 02:25:12;;;;;;;24.77;16.52;;;;;;;;;;5033975;28;20040;-66
2023/07/12 02:27:40;;;;;;;19.60;12.93;;;;;;;;;;5033775;28;20021;-67
2023/07/12 02:30:11;;;;;;;16.35;11.32;;;;;;;;;;5033567;28;20025;-67
2023/07/12 02:32:37;;;;;;;21.83;12.43;;;;;;;;;;5034074;28;20021;-67
2023/07/12 02:35:04;;;;;;;16.50;12.45;;;;;;;;;;5034483;28;20026;-67
2023/07/12 02:37:31;;;;;;;26.98;14.88;;;;;;;;;;5036348;28;20103;-68
2023/07/12 02:39:58;;;;;;;21.92;13.00;;;;;;;;;;5053755;28;20025;-69
2023/07/12 02:42:24;;;;;;;20.15;13.63;;;;;;;;;;5054461;28;20528;-68
2023/07/12 02:44:52;;;;;;;24.20;14.75;;;;;;;;;;5053743;28;20052;-66
2023/07/12 02:47:18;;;;;;;22.80;13.40;;;;;;;;;;5053742;28;20492;-66
2023/07/12 02:49:45;;;;;;;20.45;13.02;;;;;;;;;;5053793;28;20028;-67
2023/07/12 02:52:12;;;;;;;30.15;17.70;;;;;;;;;;5053579;28;20017;-65
2023/07/12 02:54:38;;;;;;;23.52;14.40;;;;;;;;;;5053588;28;20040;-65
2023/07/12 02:57:05;;;;;;;18.88;12.48;;;;;;;;;;5053896;28;20106;-66
2023/07/12 02:59:32;;;;;;;22.92;13.15;;;;;;;;;;5053223;28;20055;-66
2023/07/12 03:01:58;;;;;;;19.80;12.48;;;;;;;;;;5053522;28;20029;-66
2023/07/12 03:04:25;;;;;;;32.55;17.35;;;;;;;;;;5053525;28;20025;-66
2023/07/12 03:06:51;;;;;;;23.40;12.90;;;;;;;;;;5052886;28;20025;-66
2023/07/12 03:09:18;;;;;;;20.60;14.25;;;;;;;;;;5053850;28;20597;-66
2023/07/12 03:11:48;;;;;;;24.92;14.43;;;;;;;;;;5054033;28;20021;-67
2023/07/12 03:14:16;;;;;;;19.17;12.30;;;;;;;;;;5051156;28;20021;-66
2023/07/12 03:16:42;;;;;;;28.08;16.33;;;;;;;;;;5053390;28;20386;-65
2023/07/12 03:19:09;;;;;;;30.83;15.80;;;;;;;;;;5054134;28;20021;-66
2023/07/12 03:21:36;;;;;;;24.88;13.90;;;;;;;;;;5054008;28;20483;-65
2023/07/12 03:24:02;;;;;;;22.42;14.32;;;;;;;;;;5053108;28;20359;-68
2023/07/12 03:26:29;;;;;;;24.20;13.10;;;;;;;;;;5052571;28;20053;-67
2023/07/12 03:28:58;;;;;;;22.70;13.20;;;;;;;;;;5053113;28;20479;-70
2023/07/12 03:31:25;;;;;;;31.58;18.10;;;;;;;;;;5052746;28;20076;-68
2023/07/12 03:33:52;;;;;;;25.70;17.33;;;;;;;;;;5052835;28;20026;-68
2023/07/12 03:36:19;;;;;;;16.70;14.05;;;;;;;;;;5052844;28;20436;-67
2023/07/12 03:38:46;;;;;;;21.23;15.88;;;;;;;;;;5052357;28;20507;-69
2023/07/12 03:41:17;;;;;;;21.63;14.43;;;;;;;;;;5051915;28;20037;-68
2023/07/12 03:43:43;;;;;;;20.95;13.70;;;;;;;;;;5052273;28;20041;-68
2023/07/12 03:46:10;;;;;;;18.98;14.32;;;;;;;;;;5050873;28;20052;-68
2023/07/12 03:48:37;;;;;;;24.52;15.18;;;;;;;;;;5050932;28;20057;-68
2023/07/12 03:51:03;;;;;;;26.45;14.25;;;;;;;;;;5050351;28;20025;-67
2023/07/12 03:53:30;;;;;;;22.90;16.90;;;;;;;;;;5043198;28;20262;-67
2023/07/12 03:55:58;;;;;;;22.30;15.82;;;;;;;;;;5032608;28;20022;-67
2023/07/12 03:58:27;;;;;;;24.00;15.00;;;;;;;;;;5032752;28;20033;-68
2023/07/12 04:00:53;;;;;;;17.73;13.40;;;;;;;;;;5032883;28;20032;-68
2023/07/12 04:03:20;;;;;;;18.02;13.68;;;;;;;;;;5035896;28;20029;-67
2023/07/12 04:05:51;;;;;;;16.50;12.73;;;;;;;;;;5053097;28;20021;-68
2023/07/12 04:08:19;;;;;;;16.38;12.20;;;;;;;;;;5053024;28;20382;-69
2023/07/12 04:10:46;;;;;;;18.27;11.85;;;;;;;;;;5052836;28;20032;-67
2023/07/12 04:13:12;;;;;;;16.38;11.88;;;;;;;;;;5052754;28;20059;-68
2023/07/12 04:15:39;;;;;;;16.73;11.50;;;;;;;;;;5053059;28;20357;-68
2023/07/12 04:18:06;;;;;;;15.82;11.80;;;;;;;;;;5056527;28;20092;-67
2023/07/12 04:20:37;;;;;;;18.23;11.30;;;;;;;;;;5056619;28;20036;-68
2023/07/12 04:23:03;;;;;;;16.73;11.40;;;;;;;;;;5056494;28;20064;-71
2023/07/12 04:25:30;;;;;;;12.27;9.55;;;;;;;;;;5056644;28;20055;-65
2023/07/12 04:27:57;;;;;;;14.82;10.35;;;;;;;;;;5056138;28;20025;-67
2023/07/12 04:30:23;;;;;;;19.60;11.70;;;;;;;;;;5056488;28;20017;-65
2023/07/12 04:32:52;;;;;;;23.55;12.88;;;;;;;;;;5056296;28;20025;-68
2023/07/12 04:35:19;;;;;;;17.67;11.05;;;;;;;;;;5055970;28;20036;-68
2023/07/12 04:37:46;;;;;;;15.65;10.18;;;;;;;;;;5056180;28;20488;-68
2023/07/12 04:40:13;;;;;;;16.85;9.15;;;;;;;;;;5056377;28;20123;-69
2023/07/12 04:42:40;;;;;;;10.93;8.77;;;;;;;;;;5056322;28;20493;-68
2023/07/12 04:45:09;;;;;;;15.93;10.35;;;;;;;;;;5058092;28;20068;-68
2023/07/12 04:47:36;;;;;;;15.05;10.73;;;;;;;;;;5057654;28;20021;-67
2023/07/12 04:50:04;;;;;;;14.65;9.40;;;;;;;;;;5055299;28;20039;-67
2023/07/12 04:52:30;;;;;;;15.93;9.43;;;;;;;;;;5050762;28;20062;-67
2023/07/12 04:54:58;;;;;;;15.98;8.70;;;;;;;;;;5056960;28;20021;-66
2023/07/12 04:57:25;;;;;;;14.18;9.57;;;;;;;;;;5054416;28;20477;-66
2023/07/12 04:59:52;;;;;;;17.85;10.02;;;;;;;;;;5056789;28;20025;-65
2023/07/12 05:02:18;;;;;;;14.18;9.73;;;;;;;;;;5053821;28;20052;-67
2023/07/12 05:04:45;;;;;;;14.73;9.10;;;;;;;;;;5055030;28;20021;-68
2023/07/12 05:07:11;;;;;;;15.68;9.25;;;;;;;;;;5055607;28;20032;-68
2023/07/12 05:09:38;;;;;;;12.63;8.50;;;;;;;;;;5055297;28;20017;-68
2023/07/12 05:12:05;;;;;;;13.80;9.98;;;;;;;;;;5055003;28;20021;-69
2023/07/12 05:14:32;;;;;;;12.68;9.18;;;;;;;;;;5054784;28;20487;-67
2023/07/12 05:16:59;;;;;;;15.57;9.23;;;;;;;;;;5053397;28;20036;-67
2023/07/12 05:19:25;;;;;;;12.43;7.88;;;;;;;;;;5053136;28;20040;-68
2023/07/12 05:21:52;;;;;;;14.05;9.27;;;;;;;;;;5054493;28;20049;-66
2023/07/12 05:24:19;;;;;;;11.85;8.57;;;;;;;;;;5053459;28;20382;-68
2023/07/12 05:26:45;;;;;;;20.73;9.57;;;;;;;;;;5054878;28;20282;-68
2023/07/12 05:29:13;;;;;;;16.25;9.57;;;;;;;;;;5054255;28;20051;-68
2023/07/12 05:31:39;;;;;;;13.95;8.82;;;;;;;;;;5055027;28;20053;-67
2023/07/12 05:34:06;;;;;;;12.32;9.48;;;;;;;;;;5054535;28;20458;-67
2023/07/12 05:36:32;;;;;;;11.63;8.77;;;;;;;;;;5055055;28;20481;-68
2023/07/12 05:38:59;;;;;;;19.92;8.38;;;;;;;;;;5054917;28;20021;-67
2023/07/12 05:41:26;;;;;;;12.05;8.63;;;;;;;;;;5054482;28;20021;-66
2023/07/12 05:43:53;;;;;;;11.52;8.77;;;;;;;;;;5054280;28;20045;-69
2023/07/12 05:46:20;;;;;;;15.15;10.32;;;;;;;;;;5054670;28;20449;-70
2023/07/12 05:48:47;;;;;;;14.60;10.60;;;;;;;;;;5051986;28;20021;-65
2023/07/12 05:51:13;;;;;;;13.38;9.63;;;;;;;;;;5054622;28;20017;-66
2023/07/12 05:53:40;;;;;;;11.88;9.52;;;;;;;;;;5054979;28;20021;-66
2023/07/12 05:56:06;;;;;;;18.63;11.00;;;;;;;;;;5053665;28;20021;-65
2023/07/12 05:58:35;;;;;;;15.80;9.77;;;;;;;;;;5052058;28;20386;-66
2023/07/12 06:01:02;;;;;;;14.93;9.50;;;;;;;;;;5051388;28;20551;-65
2023/07/12 06:03:30;;;;;;;19.77;11.55;;;;;;;;;;5053025;28;20021;-64
2023/07/12 06:05:57;;;;;;;17.58;11.00;;;;;;;;;;5052503;28;20099;-64
2023/07/12 06:08:24;;;;;;;12.35;9.48;;;;;;;;;;5052035;28;20027;-65
2023/07/12 06:10:51;;;;;;;16.38;9.32;;;;;;;;;;5052501;28;20067;-65
2023/07/12 06:13:17;;;;;;;12.52;9.88;;;;;;;;;;5050773;28;20355;-65
2023/07/12 06:15:44;;;;;;;14.13;9.55;;;;;;;;;;5054251;28;20017;-66
2023/07/12 06:18:11;;;;;;;10.55;8.48;;;;;;;;;;5052284;28;20037;-65
2023/07/12 06:20:37;;;;;;;12.60;8.57;;;;;;;;;;5053844;28;20432;-65
2023/07/12 06:23:04;;;;;;;15.45;9.60;;;;;;;;;;5039948;28;20083;-65
2023/07/12 06:25:31;;;;;;;12.18;9.02;;;;;;;;;;5050418;28;20036;-65
2023/07/12 06:27:57;;;;;;;13.35;9.18;;;;;;;;;;5044250;28;20037;-66
2023/07/12 06:30:24;;;;;;;13.10;8.88;;;;;;;;;;5038750;28;20085;-65
2023/07/12 06:32:51;;;;;;;14.40;9.55;;;;;;;;;;5041418;28;20025;-65
2023/07/12 06:35:17;;;;;;;17.33;9.77;;;;;;;;;;5034124;28;20458;-66
2023/07/12 06:37:44;;;;;;;14.50;10.18;;;;;;;;;;5044703;28;20408;-67
2023/07/12 06:40:10;;;;;;;15.98;10.38;;;;;;;;;;5034076;28;20025;-67
2023/07/12 06:42:37;;;;;;;16.70;11.73;;;;;;;;;;5043226;28;20028;-65
2023/07/12 06:45:04;;;;;;;13.88;9.02;;;;;;;;;;5035174;28;20029;-65
2023/07/12 06:47:32;;;;;;;12.77;9.93;;;;;;;;;;5041954;28;20112;-65
2023/07/12 06:49:59;;;;;;;13.55;9.48;;;;;;;;;;5035637;28;20479;-65
2023/07/12 06:52:25;;;;;;;14.13;11.02;;;;;;;;;;5041406;28;20071;-65
2023/07/12 06:54:52;;;;;;;19.38;11.10;;;;;;;;;;5037526;28;20181;-65
2023/07/12 06:57:19;;;;;;;19.75;11.32;;;;;;;;;;5040459;28;20033;-63
2023/07/12 06:59:46;;;;;;;16.15;9.85;;;;;;;;;;5045769;28;20037;-65
2023/07/12 07:02:13;;;;;;;13.15;10.40;;;;;;;;;;5047092;28;20520;-66
2023/07/12 07:04:39;;;;;;;17.70;9.50;;;;;;;;;;5038766;28;20507;-65
2023/07/12 07:07:06;;;;;;;16.00;11.60;;;;;;;;;;5033458;28;20391;-67
2023/07/12 07:09:38;;;;;;;17.98;10.23;;;;;;;;;;5033582;28;20394;-66
2023/07/12 07:12:05;;;;;;;17.35;9.90;;;;;;;;;;5033578;28;20532;-66
2023/07/12 07:14:32;;;;;;;12.05;8.88;;;;;;;;;;5033672;28;20486;-65
2023/07/12 07:16:59;;;;;;;13.65;9.70;;;;;;;;;;5033404;28;20026;-66
2023/07/12 07:19:25;;;;;;;13.52;9.98;;;;;;;;;;5032735;28;20029;-66
2023/07/12 07:21:52;;;;;;;17.05;12.25;;;;;;;;;;5032770;28;20053;-67
2023/07/12 07:24:19;;;;;;;17.25;10.90;;;;;;;;;;5033264;28;20053;-66
2023/07/12 07:26:46;;;;;;;20.33;11.57;;;;;;;;;;5033064;28;20025;-66
2023/07/12 07:29:12;;;;;;;17.83;12.60;;;;;;;;;;5033615;28;20438;-66
2023/07/12 07:31:39;;;;;;;24.88;14.45;;;;;;;;;;5033198;28;20479;-67
2023/07/12 07:34:05;;;;;;;16.30;12.38;;;;;;;;;;5033021;28;20029;-66
2023/07/12 07:36:32;;;;;;;24.42;16.48;;;;;;;;;;5033228;28;20021;-66
2023/07/12 07:38:59;;;;;;;17.15;12.95;;;;;;;;;;5033101;28;20043;-65
2023/07/12 07:41:26;;;;;;;18.83;12.07;;;;;;;;;;5033027;28;20086;-65
2023/07/12 07:43:52;;;;;;;22.15;13.85;;;;;;;;;;5032887;28;20141;-66
2023/07/12 07:46:19;;;;;;;19.27;14.38;;;;;;;;;;5035455;28;20069;-66
2023/07/12 07:48:46;;;;;;;18.70;13.90;;;;;;;;;;5048803;28;20028;-64
2023/07/12 07:51:13;;;;;;;20.83;13.90;;;;;;;;;;5033551;28;20122;-66
2023/07/12 07:53:39;;;;;;;21.95;15.32;;;;;;;;;;5037044;28;20025;-67
2023/07/12 07:56:07;;;;;;;20.10;14.38;;;;;;;;;;5036923;28;20382;-67
2023/07/12 07:58:34;;;;;;;18.30;13.38;;;;;;;;;;5036997;28;20022;-67
2023/07/12 08:01:00;;;;;;;19.42;13.23;;;;;;;;;;5039400;28;20478;-67
2023/07/12 08:03:27;;;;;;;22.50;13.73;;;;;;;;;;5039215;28;20036;-67
2023/07/12 08:06:00;;;;;;;19.83;13.57;;;;;;;;;;5046195;28;20020;-66
2023/07/12 08:08:28;;;;;;;17.27;13.20;;;;;;;;;;5056784;28;20051;-66
2023/07/12 08:10:55;;;;;;;16.67;12.27;;;;;;;;;;5056278;28;20075;-68
2023/07/12 08:13:22;;;;;;;15.85;11.32;;;;;;;;;;5056638;28;20021;-67
2023/07/12 08:15:49;;;;;;;16.77;12.27;;;;;;;;;;5056518;28;20031;-67
2023/07/12 08:18:15;;;;;;;20.02;11.82;;;;;;;;;;5049435;28;20063;-67
2023/07/12 08:20:42;;;;;;;15.55;11.82;;;;;;;;;;5040675;28;20037;-66
2023/07/12 08:23:09;;;;;;;18.48;12.73;;;;;;;;;;5047420;28;20053;-67
2023/07/12 08:25:36;;;;;;;22.45;12.88;;;;;;;;;;5055261;28;20021;-66
2023/07/12 08:28:03;;;;;;;55.72;38.28;;;;;;;;;;5053418;28;20029;-66
2023/07/12 08:30:29;;;;;;;52.38;32.50;;;;;;;;;;5055490;28;20021;-68
2023/07/12 08:32:56;;;;;;;24.17;16.05;;;;;;;;;;5053515;28;20021;-70
2023/07/12 08:35:22;;;;;;;20.00;13.05;;;;;;;;;;5055411;28;20027;-68
2023/07/12 08:37:49;;;;;;;22.65;14.23;;;;;;;;;;5053233;28;20052;-68
2023/07/12 08:40:16;;;;;;;17.95;12.77;;;;;;;;;;5055484;28;20028;-67
2023/07/12 08:42:44;;;;;;;15.50;12.10;;;;;;;;;;5051156;28;20033;-69
2023/07/12 08:45:20;;;;;;;16.23;11.57;;;;;;;;;;5055231;28;20039;-69
2023/07/12 08:47:48;;;;;;;20.08;12.20;;;;;;;;;;5050254;28;20029;-69
2023/07/12 08:50:16;;;;;;;20.52;14.20;;;;;;;;;;5047102;28;20047;-68
2023/07/12 08:52:44;;;;;;;18.48;13.55;;;;;;;;;;5049570;28;20031;-69
2023/07/12 08:55:14;;;;;;;20.08;12.63;;;;;;;;;;5046505;28;20382;-68
2023/07/12 08:57:41;;;;;;;18.25;13.05;;;;;;;;;;5043856;28;20030;-66
2023/07/12 09:00:10;;;;;;;15.80;12.45;;;;;;;;;;5044236;28;20410;-65
2023/07/12 09:02:37;;;;;;;16.08;12.20;;;;;;;;;;5037081;28;20025;-65
2023/07/12 09:05:15;;;;;;;16.67;12.10;;;;;;;;;;5050433;28;20021;-64
2023/07/12 09:07:48;;;;;;;16.55;12.57;;;;;;;;;;5049953;28;20025;-64
2023/07/12 09:10:26;;;;;;;17.80;12.98;;;;;;;;;;5053956;28;20036;-65
2023/07/12 09:12:52;;;;;;;31.45;20.13;;;;;;;;;;5049986;28;20017;-65
2023/07/12 09:15:21;;;;;;;42.42;27.20;;;;;;;;;;5054355;28;20024;-65
2023/07/12 09:17:48;;;;;;;41.65;26.45;;;;;;;;;;5048577;28;20490;-67
2023/07/12 09:20:25;;;;;;;34.50;23.63;;;;;;;;;;5043828;28;20128;-67
2023/07/12 09:22:52;;;;;;;41.40;26.27;;;;;;;;;;5038206;28;20040;-66
2023/07/12 09:25:21;;;;;;;40.75;27.70;;;;;;;;;;5042906;28;20037;-66
2023/07/12 09:27:48;;;;;;;44.75;31.60;;;;;;;;;;5038302;28;20234;-66
2023/07/12 09:30:19;;;;;;;35.60;27.00;;;;;;;;;;5043484;28;20483;-64
2023/07/12 09:32:49;;;;;;;63.23;40.27;;;;;;;;;;5037074;28;20032;-64
2023/07/12 09:35:29;;;;;;;135.40;93.75;;;;;;;;;;5046402;28;20522;-65
2023/07/12 09:37:58;;;;;;;601.63;442.40;;;;;;;;;;5054984;28;20113;-64
2023/07/12 09:40:24;;;;;;;889.17;634.03;;;;;;;;;;5054909;28;20552;-66
2023/07/12 09:42:57;;;;;;;440.20;322.25;;;;;;;;;;5054907;28;20457;-64
2023/07/12 09:45:27;;;;;;;184.45;136.18;;;;;;;;;;5054792;28;20402;-65
2023/07/12 09:47:57;;;;;;;107.50;84.55;;;;;;;;;;5054877;28;20052;-64
2023/07/12 09:50:32;;;;;;;97.38;65.68;;;;;;;;;;5054858;28;20474;-65
2023/07/12 09:53:04;;;;;;;83.40;56.67;;;;;;;;;;5049113;28;20183;-65
2023/07/12 09:55:37;;;;;;;58.00;41.80;;;;;;;;;;5043442;28;20061;-66
2023/07/12 09:58:24;;;;;;;64.07;39.08;;;;;;;;;;5037114;28;20044;-66
2023/07/12 10:01:01;;;;;;;73.10;43.95;;;;;;;;;;5045286;28;20258;-65
2023/07/12 10:03:32;;;;;;;62.33;39.83;;;;;;;;;;5048038;28;20508;-65
2023/07/12 10:06:03;;;;;;;73.97;43.15;;;;;;;;;;5044521;28;20040;-66
2023/07/12 10:08:35;;;;;;;60.83;36.28;;;;;;;;;;5041828;28;20112;-66
2023/07/12 10:11:03;;;;;;;;;;;;;;;;;;5034673;28;20021;-65
2023/07/12 10:13:49;;;;;;;48.38;31.73;;;;;;;;;;5039907;28;20362;-68
2023/07/12 10:16:18;;;;;;;54.45;32.83;;;;;;;;;;5039829;28;20021;-66
2023/07/12 10:18:46;;;;;;;55.72;33.38;;;;;;;;;;5044425;28;20381;-67
2023/07/12 10:21:16;;;;;;;57.33;33.58;;;;;;;;;;5036999;28;20045;-66
2023/07/12 10:23:45;;;;;;;58.35;35.47;;;;;;;;;;5041499;28;20536;-70
2023/07/12 10:26:15;;;;;;;69.18;44.00;;;;;;;;;;5037217;28;20021;-66
2023/07/12 10:28:49;;;;;;;78.00;44.75;;;;;;;;;;5041410;28;20436;-67
2023/07/12 10:31:20;;;;;;;73.32;42.17;;;;;;;;;;5036807;28;20510;-68
2023/07/12 10:33:49;;;;;;;83.93;47.45;;;;;;;;;;5042513;28;20025;-67
2023/07/12 10:36:19;;;;;;;83.05;43.45;;;;;;;;;;5036592;28;20022;-67
2023/07/12 10:38:45;;;;;;;87.50;51.38;;;;;;;;;;5039242;28;20544;-66
2023/07/12 10:41:14;;;;;;;98.03;57.80;;;;;;;;;;5050388;28;20025;-67
2023/07/12 10:43:47;;;;;;;114.80;62.78;;;;;;;;;;5046560;28;20516;-69
2023/07/12 10:46:17;;;;;;;98.18;56.42;;;;;;;;;;5036222;28;20025;-68
2023/07/12 10:48:46;;;;;;;110.28;63.90;;;;;;;;;;5040531;28;20025;-69
2023/07/12 10:51:22;;;;;;;125.47;68.00;;;;;;;;;;5037078;28;20085;-68
2023/07/12 10:53:50;;;;;;;117.85;66.00;;;;;;;;;;5034704;28;20634;-68
2023/07/12 10:56:19;;;;;;;133.68;71.90;;;;;;;;;;5036266;28;20029;-66
2023/07/12 10:58:47;;;;;;;120.57;72.75;;;;;;;;;;5052432;28;20025;-67
2023/07/12 11:01:22;;;;;;;112.25;59.55;;;;;;;;;;5052910;28;20020;-67
2023/07/12 11:04:05;;;;;;;96.00;55.13;;;;;;;;;;5052977;28;20028;-67
2023/07/12 11:06:33;;;;;;;82.47;50.40;;;;;;;;;;5052887;28;20037;-67
2023/07/12 11:09:00;;;;;;;83.30;49.40;;;;;;;;;;5053037;28;20429;-67
2023/07/12 11:11:33;;;;;;;92.20;52.03;;;;;;;;;;5053233;28;20104;-67
2023/07/12 11:14:12;;;;;;;131.65;78.97;;;;;;;;;;5053259;28;20501;-65
2023/07/12 11:16:44;;;;;;;178.55;113.75;;;;;;;;;;5053334;28;20425;-66
2023/07/12 11:19:30;;;;;;;209.80;126.70;;;;;;;;;;5053159;28;20029;-66
2023/07/12 11:22:02;;;;;;;111.07;63.38;;;;;;;;;;5053015;28;20121;-66
2023/07/12 11:24:32;;;;;;;80.65;50.90;;;;;;;;;;5038080;28;20026;-66
2023/07/12 11:26:59;;;;;;;108.90;63.53;;;;;;;;;;5034970;28;20072;-66
2023/07/12 11:29:26;;;;;;;118.63;65.55;;;;;;;;;;5037144;28;20026;-68
2023/07/12 11:32:01;;;;;;;116.70;68.55;;;;;;;;;;5037797;28;20029;-66
2023/07/12 11:34:28;;;;;;;99.43;57.95;;;;;;;;;;5037699;28;20111;-65
2023/07/12 11:37:00;;;;;;;94.22;54.78;;;;;;;;;;5037606;28;20107;-66
2023/07/12 11:39:29;;;;;;;109.22;67.00;;;;;;;;;;5037084;28;20434;-65
2023/07/12 11:41:57;;;;;;;132.27;81.68;;;;;;;;;;5037224;28;20032;-66
2023/07/12 11:44:26;;;;;;;146.20;88.55;;;;;;;;;;5037079;28;20144;-66
2023/07/12 11:46:53;;;;;;;145.75;85.90;;;;;;;;;;5037457;28;20025;-66
2023/07/12 11:49:21;;;;;;;145.57;88.53;;;;;;;;;;5040556;28;20036;-66
2023/07/12 11:51:49;;;;;;;157.38;92.57;;;;;;;;;;5037857;28;20071;-66
2023/07/12 11:54:17;;;;;;;138.63;84.25;;;;;;;;;;5037560;28;20021;-66
2023/07/12 11:56:44;;;;;;;169.38;97.80;;;;;;;;;;5037962;28;20474;-65
2023/07/12 11:59:15;;;;;;;189.18;109.78;;;;;;;;;;5042631;28;20504;-65
2023/07/12 12:01:43;;;;;;;202.82;115.18;;;;;;;;;;5057636;28;20104;-65
2023/07/12 12:04:11;;;;;;;183.55;103.90;;;;;;;;;;5057765;28;20033;-65
2023/07/12 12:06:38;;;;;;;187.77;107.50;;;;;;;;;;5057575;28;20060;-65
2023/07/12 12:09:05;;;;;;;245.52;131.82;;;;;;;;;;5040176;28;20022;-65
2023/07/12 12:11:32;;;;;;;256.77;140.57;;;;;;;;;;5037473;28;20490;-65
2023/07/12 12:13:59;;;;;;;252.80;138.43;;;;;;;;;;5037864;28;20409;-65
2023/07/12 12:16:27;;;;;;;211.93;116.75;;;;;;;;;;5037427;28;20037;-66
2023/07/12 12:18:56;;;;;;;171.80;94.50;;;;;;;;;;5037533;28;20417;-66
2023/07/12 12:21:24;;;;;;;145.25;84.57;;;;;;;;;;5037364;28;20542;-65
2023/07/12 12:23:53;;;;;;;161.32;85.80;;;;;;;;;;5037347;28;20600;-65
2023/07/12 12:26:25;;;;;;;163.18;84.45;;;;;;;;;;5037300;28;20017;-65
2023/07/12 12:28:56;;;;;;;157.10;86.07;;;;;;;;;;5037105;28;20025;-65
2023/07/12 12:31:24;;;;;;;208.93;107.18;;;;;;;;;;5037149;28;20123;-66
2023/07/12 12:33:52;;;;;;;168.43;92.30;;;;;;;;;;5058795;22;20033;-65
2023/07/12 12:36:24;;;;;;;135.90;70.10;;;;;;;;;;5036632;28;20041;-65
2023/07/12 12:39:05;;;;;;;99.60;56.92;;;;;;;;;;5037003;28;20032;-66
2023/07/12 12:41:33;;;;;;;78.38;46.50;;;;;;;;;;5036893;28;20041;-66
2023/07/12 12:44:07;;;;;;;82.68;44.35;;;;;;;;;;5036960;28;20033;-66
2023/07/12 12:46:33;;;;;;;60.55;39.10;;;;;;;;;;5036991;28;20278;-64
2023/07/12 12:49:00;;;;;;;63.50;35.33;;;;;;;;;;5036705;28;20030;-65
2023/07/12 12:51:26;;;;;;;51.45;31.77;;;;;;;;;;5036943;28;20025;-66
2023/07/12 12:53:53;;;;;;;46.22;28.30;;;;;;;;;;5036896;28;20026;-66
2023/07/12 12:56:20;;;;;;;46.28;28.73;;;;;;;;;;5034861;28;20437;-66
2023/07/12 12:58:46;;;;;;;44.97;27.88;;;;;;;;;;5035957;28;20029;-66
2023/07/12 13:01:14;;;;;;;64.85;32.58;;;;;;;;;;5035778;28;20075;-67
2023/07/12 13:03:41;;;;;;;41.83;27.30;;;;;;;;;;5032974;28;20020;-66
2023/07/12 13:06:17;;;;;;;39.90;26.85;;;;;;;;;;5024546;28;20030;-66
2023/07/12 13:08:44;;;;;;;42.75;26.25;;;;;;;;;;5035092;28;20037;-66
2023/07/12 13:11:10;;;;;;;37.22;25.40;;;;;;;;;;5035177;28;20495;-66
2023/07/12 13:13:37;;;;;;;40.47;26.27;;;;;;;;;;5035479;28;20056;-66
2023/07/12 13:16:04;;;;;;;102.00;72.47;;;;;;;;;;5025441;28;20014;-67
2023/07/12 13:18:30;;;;;;;64.53;47.17;;;;;;;;;;5025514;28;20105;-66
2023/07/12 13:20:57;;;;;;;53.17;38.25;;;;;;;;;;5025630;28;20463;-66
2023/07/12 13:23:24;;;;;;;105.85;71.15;;;;;;;;;;5023577;28;20021;-67
2023/07/12 13:25:51;;;;;;;81.90;55.90;;;;;;;;;;5024981;28;20495;-67
2023/07/12 13:28:18;;;;;;;60.10;35.55;;;;;;;;;;5024491;28;20028;-67
2023/07/12 13:30:45;;;;;;;57.55;34.63;;;;;;;;;;5004163;28;20098;-67
2023/07/12 13:33:14;;;;;;;84.15;48.60;;;;;;;;;;5005282;28;20157;-66
2023/07/12 13:35:42;;;;;;;59.83;38.42;;;;;;;;;;4997768;28;20522;-67
2023/07/12 13:38:11;;;;;;;69.50;42.58;;;;;;;;;;4995763;28;20108;-66
2023/07/12 13:40:38;;;;;;;127.95;91.43;;;;;;;;;;5002955;28;20030;-66
2023/07/12 13:43:05;;;;;;;77.32;46.13;;;;;;;;;;5003150;28;20022;-71
2023/07/12 13:45:31;;;;;;;42.65;27.48;;;;;;;;;;5002491;28;20384;-67
2023/07/12 13:47:58;;;;;;;51.30;27.50;;;;;;;;;;5004076;28;20018;-67
2023/07/12 13:50:25;;;;;;;38.60;26.23;;;;;;;;;;5002332;28;20022;-67
2023/07/12 13:52:51;;;;;;;38.88;21.75;;;;;;;;;;5003743;28;20049;-67
2023/07/12 13:55:19;;;;;;;28.98;18.40;;;;;;;;;;4999949;28;20026;-68
2023/07/12 13:57:47;;;;;;;26.90;17.20;;;;;;;;;;5001192;28;20426;-68
2023/07/12 14:00:16;;;;;;;32.10;19.15;;;;;;;;;;5005256;28;20034;-68
2023/07/12 14:02:44;;;;;;;24.77;16.20;;;;;;;;;;4998804;28;20022;-67
2023/07/12 14:05:12;;;;;;;27.92;17.15;;;;;;;;;;4997195;28;20033;-67
2023/07/12 14:07:42;;;;;;;23.50;16.02;;;;;;;;;;4997153;28;20026;-68
2023/07/12 14:10:12;;;;;;;22.15;13.88;;;;;;;;;;5007277;28;20029;-67
2023/07/12 14:12:39;;;;;;;23.38;15.02;;;;;;;;;;5007584;28;20022;-66
2023/07/12 14:15:06;;;;;;;21.25;14.30;;;;;;;;;;5001607;28;20018;-67
2023/07/12 14:17:33;;;;;;;29.55;14.30;;;;;;;;;;5001875;28;20511;-67
2023/07/12 14:20:00;;;;;;;27.27;16.25;;;;;;;;;;5002200;28;20027;-65
2023/07/12 14:22:28;;;;;;;21.02;14.07;;;;;;;;;;5003616;28;20068;-66
2023/07/12 14:24:55;;;;;;;23.17;14.30;;;;;;;;;;5003642;28;20291;-66